createdAt,value
2018-05-06T00:00:37.764Z,34.60
2018-05-06T00:01:37.706Z,35.00
2018-05-06T00:02:37.703Z,35.70
2018-05-06T00:03:37.792Z,36.50
2018-05-06T00:04:37.685Z,36.10
2018-05-06T00:05:37.680Z,35.90
2018-05-06T00:06:37.672Z,36.80
2018-05-06T00:07:37.674Z,37.00
2018-05-06T00:08:37.660Z,36.20
2018-05-06T00:09:37.652Z,36.80
2018-05-06T00:10:37.645Z,36.20
2018-05-06T00:11:37.639Z,35.90
2018-05-06T00:12:37.634Z,36.50
2018-05-06T00:13:37.626Z,37.70
2018-05-06T00:14:37.623Z,37.70
2018-05-06T00:15:37.613Z,38.20
2018-05-06T00:16:37.606Z,36.60
2018-05-06T00:17:37.599Z,37.30
2018-05-06T00:18:37.593Z,36.10
2018-05-06T00:19:37.588Z,35.20
2018-05-06T00:20:37.581Z,36.30
2018-05-06T00:21:37.675Z,36.20
2018-05-06T00:22:37.566Z,37.90
2018-05-06T00:23:37.559Z,37.00
2018-05-06T00:24:37.560Z,36.10
2018-05-06T00:25:37.550Z,36.00
2018-05-06T00:26:37.541Z,36.80
2018-05-06T00:27:37.538Z,37.20
2018-05-06T00:28:37.527Z,36.70
2018-05-06T00:29:37.521Z,35.70
2018-05-06T00:30:37.515Z,36.60
2018-05-06T00:31:37.507Z,37.00
2018-05-06T00:32:37.504Z,35.70
2018-05-06T00:33:37.573Z,37.00
2018-05-06T00:34:37.487Z,36.00
2018-05-06T00:35:37.481Z,38.00
2018-05-06T00:36:37.475Z,38.40
2018-05-06T00:37:37.470Z,36.90
2018-05-06T00:38:37.461Z,37.20
2018-05-06T00:39:37.555Z,38.30
2018-05-06T00:40:37.450Z,36.60
2018-05-06T00:41:37.443Z,35.60
2018-05-06T00:42:37.439Z,36.80
2018-05-06T00:43:37.431Z,38.70
2018-05-06T00:44:37.474Z,37.10
2018-05-06T00:45:37.418Z,38.60
2018-05-06T00:46:37.410Z,38.60
2018-05-06T00:47:37.403Z,38.80
2018-05-06T00:48:37.398Z,38.10
2018-05-06T00:49:37.392Z,37.70
2018-05-06T00:50:37.384Z,37.50
2018-05-06T00:51:37.381Z,39.30
2018-05-06T00:52:37.373Z,38.60
2018-05-06T00:53:37.365Z,38.20
2018-05-06T00:54:37.358Z,39.10
2018-05-06T00:55:37.356Z,38.90
2018-05-06T00:56:37.349Z,40.00
2018-05-06T00:57:37.346Z,38.10
2018-05-06T00:58:37.335Z,39.70
2018-05-06T00:59:37.328Z,38.70
2018-05-06T01:00:37.327Z,38.40
2018-05-06T01:01:37.322Z,39.70
2018-05-06T01:02:37.309Z,39.60
2018-05-06T01:03:37.304Z,41.30
2018-05-06T01:04:37.296Z,39.50
2018-05-06T01:05:37.290Z,40.60
2018-05-06T01:06:37.282Z,41.50
2018-05-06T01:07:37.278Z,41.70
2018-05-06T01:08:37.269Z,41.50
2018-05-06T01:09:37.261Z,40.70
2018-05-06T01:10:37.270Z,41.00
2018-05-06T01:11:37.248Z,42.30
2018-05-06T01:12:37.246Z,42.50
2018-05-06T01:13:37.236Z,42.20
2018-05-06T01:14:37.229Z,39.80
2018-05-06T01:15:37.321Z,39.50
2018-05-06T01:16:37.220Z,41.70
2018-05-06T01:17:37.211Z,39.70
2018-05-06T01:18:37.202Z,40.30
2018-05-06T01:19:37.202Z,41.40
2018-05-06T01:20:37.187Z,42.40
2018-05-06T01:21:37.287Z,42.70
2018-05-06T01:22:37.176Z,41.10
2018-05-06T01:23:37.167Z,40.50
2018-05-06T01:24:37.162Z,39.80
2018-05-06T01:25:37.160Z,40.20
2018-05-06T01:26:37.148Z,40.80
2018-05-06T01:27:37.143Z,41.10
2018-05-06T01:28:37.133Z,41.70
2018-05-06T01:29:37.127Z,40.40
2018-05-06T01:30:37.118Z,40.70
2018-05-06T01:31:37.114Z,40.00
2018-05-06T01:32:37.114Z,40.60
2018-05-06T01:33:37.200Z,40.40
2018-05-06T01:34:37.091Z,41.00
2018-05-06T01:35:37.091Z,40.60
2018-05-06T01:36:37.081Z,41.60
2018-05-06T01:37:37.080Z,43.40
2018-05-06T01:38:37.065Z,42.70
2018-05-06T01:39:37.161Z,41.80
2018-05-06T01:40:37.053Z,42.20
2018-05-06T01:41:37.051Z,42.20
2018-05-06T01:42:37.039Z,43.90
2018-05-06T01:43:37.031Z,43.00
2018-05-06T01:44:37.029Z,43.50
2018-05-06T01:45:37.015Z,43.40
2018-05-06T01:46:37.008Z,44.70
2018-05-06T01:47:37.000Z,42.40
2018-05-06T01:48:36.996Z,44.00
2018-05-06T01:49:36.986Z,43.00
2018-05-06T01:50:36.979Z,44.90
2018-05-06T01:51:36.972Z,44.80
2018-05-06T01:52:36.971Z,43.90
2018-05-06T01:53:36.961Z,45.80
2018-05-06T01:54:36.950Z,45.70
2018-05-06T01:55:36.951Z,48.10
2018-05-06T01:56:36.943Z,45.70
2018-05-06T01:57:37.029Z,48.50
2018-05-06T01:58:36.921Z,47.60
2018-05-06T01:59:36.919Z,46.10
2018-05-06T02:00:36.911Z,46.00
2018-05-06T02:01:36.903Z,46.00
2018-05-06T02:02:36.899Z,44.60
2018-05-06T02:03:36.889Z,47.50
2018-05-06T02:04:36.885Z,46.60
2018-05-06T02:05:36.870Z,47.00
2018-05-06T02:06:36.864Z,45.40
2018-05-06T02:07:36.863Z,46.60
2018-05-06T02:08:36.856Z,44.70
2018-05-06T02:09:36.846Z,48.00
2018-05-06T02:10:36.842Z,49.00
2018-05-06T02:11:36.832Z,49.10
2018-05-06T02:12:36.824Z,47.60
2018-05-06T02:13:36.814Z,48.20
2018-05-06T02:14:36.804Z,48.30
2018-05-06T02:15:36.899Z,48.70
2018-05-06T02:16:36.791Z,45.90
2018-05-06T02:17:36.788Z,47.20
2018-05-06T02:18:36.777Z,48.00
2018-05-06T02:19:36.768Z,46.60
2018-05-06T02:20:36.762Z,48.00
2018-05-06T02:21:36.755Z,46.70
2018-05-06T02:22:36.747Z,47.30
2018-05-06T02:23:36.740Z,48.20
2018-05-06T02:24:36.733Z,48.80
2018-05-06T02:25:36.728Z,49.00
2018-05-06T02:26:36.719Z,48.70
2018-05-06T02:27:36.712Z,48.50
2018-05-06T02:28:36.704Z,46.90
2018-05-06T02:29:36.698Z,46.70
2018-05-06T02:30:36.691Z,47.00
2018-05-06T02:31:36.683Z,49.70
2018-05-06T02:32:36.677Z,51.90
2018-05-06T02:33:36.670Z,50.30
2018-05-06T02:34:36.661Z,50.50
2018-05-06T02:35:36.655Z,52.50
2018-05-06T02:36:36.648Z,49.70
2018-05-06T02:37:36.641Z,50.30
2018-05-06T02:38:36.634Z,50.30
2018-05-06T02:39:36.625Z,50.40
2018-05-06T02:40:36.620Z,51.30
2018-05-06T02:41:36.613Z,51.30
2018-05-06T02:42:36.605Z,51.90
2018-05-06T02:43:36.607Z,52.00
2018-05-06T02:44:36.591Z,53.10
2018-05-06T02:45:36.685Z,52.50
2018-05-06T02:46:36.578Z,53.20
2018-05-06T02:47:36.570Z,51.30
2018-05-06T02:48:36.563Z,51.00
2018-05-06T02:49:36.556Z,51.90
2018-05-06T02:50:36.548Z,52.50
2018-05-06T02:51:36.642Z,50.50
2018-05-06T02:52:36.544Z,50.50
2018-05-06T02:53:36.528Z,51.20
2018-05-06T02:54:36.521Z,51.20
2018-05-06T02:55:36.514Z,51.80
2018-05-06T02:56:36.553Z,52.10
2018-05-06T02:57:36.496Z,51.70
2018-05-06T02:58:36.488Z,51.30
2018-05-06T02:59:36.481Z,50.50
2018-05-06T03:00:36.477Z,51.70
2018-05-06T03:01:36.468Z,51.70
2018-05-06T03:02:36.460Z,51.10
2018-05-06T03:03:36.455Z,51.90
2018-05-06T03:04:36.447Z,51.60
2018-05-06T03:05:36.440Z,53.20
2018-05-06T03:06:36.434Z,52.80
2018-05-06T03:07:36.426Z,53.90
2018-05-06T03:08:36.418Z,53.90
2018-05-06T03:09:36.411Z,55.90
2018-05-06T03:10:36.404Z,55.40
2018-05-06T03:11:36.397Z,54.50
2018-05-06T03:12:36.399Z,56.60
2018-05-06T03:13:36.383Z,55.70
2018-05-06T03:14:36.375Z,54.70
2018-05-06T03:15:36.371Z,56.40
2018-05-06T03:16:36.362Z,56.10
2018-05-06T03:17:36.355Z,59.00
2018-05-06T03:18:36.347Z,59.00
2018-05-06T03:19:36.340Z,59.10
2018-05-06T03:20:36.333Z,58.70
2018-05-06T03:21:36.426Z,58.20
2018-05-06T03:22:36.319Z,57.00
2018-05-06T03:23:36.312Z,57.20
2018-05-06T03:24:36.305Z,59.10
2018-05-06T03:25:36.323Z,60.00
2018-05-06T03:26:36.294Z,60.10
2018-05-06T03:27:36.287Z,59.80
2018-05-06T03:28:36.309Z,61.20
2018-05-06T03:29:36.294Z,62.40
2018-05-06T03:30:36.297Z,62.90
2018-05-06T03:31:36.287Z,62.10
2018-05-06T03:32:36.249Z,64.70
2018-05-06T03:33:36.340Z,66.00
2018-05-06T03:34:36.233Z,63.20
2018-05-06T03:35:36.225Z,64.10
2018-05-06T03:36:36.217Z,64.60
2018-05-06T03:37:36.210Z,64.30
2018-05-06T03:38:36.202Z,68.00
2018-05-06T03:39:36.196Z,69.30
2018-05-06T03:40:36.189Z,68.50
2018-05-06T03:41:36.182Z,68.20
2018-05-06T03:42:36.175Z,70.90
2018-05-06T03:43:36.167Z,68.10
2018-05-06T03:44:36.158Z,70.20
2018-05-06T03:45:36.251Z,70.40
2018-05-06T03:46:36.143Z,70.60
2018-05-06T03:47:36.135Z,72.40
2018-05-06T03:48:36.127Z,73.80
2018-05-06T03:49:36.122Z,78.60
2018-05-06T03:50:36.113Z,77.30
2018-05-06T03:51:36.305Z,78.50
2018-05-06T03:52:36.097Z,79.20
2018-05-06T03:53:36.092Z,75.40
2018-05-06T03:54:36.085Z,77.30
2018-05-06T03:55:36.099Z,78.50
2018-05-06T03:56:36.067Z,77.80
2018-05-06T03:57:36.160Z,79.20
2018-05-06T03:58:36.051Z,81.60
2018-05-06T03:59:36.043Z,78.10
2018-05-06T04:00:36.036Z,77.60
2018-05-06T04:01:36.028Z,76.60
2018-05-06T04:02:36.019Z,76.30
2018-05-06T04:03:36.012Z,76.50
2018-05-06T04:04:36.004Z,76.20
2018-05-06T04:05:35.997Z,74.30
2018-05-06T04:06:35.989Z,74.90
2018-05-06T04:07:35.980Z,70.70
2018-05-06T04:08:35.975Z,68.20
2018-05-06T04:09:35.966Z,64.00
2018-05-06T04:10:35.958Z,65.40
2018-05-06T04:11:35.950Z,68.60
2018-05-06T04:12:35.945Z,66.80
2018-05-06T04:13:35.934Z,66.10
2018-05-06T04:14:36.003Z,63.10
2018-05-06T04:15:35.919Z,60.80
2018-05-06T04:16:35.912Z,59.40
2018-05-06T04:17:35.904Z,58.10
2018-05-06T04:18:35.895Z,57.40
2018-05-06T04:19:35.888Z,57.80
2018-05-06T04:20:35.880Z,54.90
2018-05-06T04:21:35.975Z,51.70
2018-05-06T04:22:35.864Z,54.40
2018-05-06T04:23:35.858Z,53.80
2018-05-06T04:24:35.849Z,53.80
2018-05-06T04:25:35.841Z,49.10
2018-05-06T04:26:35.832Z,48.30
2018-05-06T04:27:35.825Z,44.90
2018-05-06T04:28:35.820Z,45.40
2018-05-06T04:29:35.809Z,42.80
2018-05-06T04:30:35.801Z,45.30
2018-05-06T04:31:35.794Z,44.10
2018-05-06T04:32:35.786Z,44.10
2018-05-06T04:33:35.782Z,45.80
2018-05-06T04:34:35.770Z,46.30
2018-05-06T04:35:35.800Z,44.80
2018-05-06T04:36:35.755Z,46.50
2018-05-06T04:37:35.748Z,45.60
2018-05-06T04:38:35.739Z,43.90
2018-05-06T04:39:35.737Z,40.80
2018-05-06T04:40:35.727Z,37.70
2018-05-06T04:41:35.723Z,38.70
2018-05-06T04:42:35.711Z,38.40
2018-05-06T04:43:35.701Z,39.10
2018-05-06T04:44:35.694Z,40.20
2018-05-06T04:45:35.687Z,38.90
2018-05-06T04:46:35.678Z,38.30
2018-05-06T04:47:35.670Z,39.10
2018-05-06T04:48:35.663Z,38.40
2018-05-06T04:49:35.656Z,35.70
2018-05-06T04:50:35.647Z,35.10
2018-05-06T04:51:35.640Z,35.00
2018-05-06T04:52:35.633Z,34.60
2018-05-06T04:53:35.624Z,31.80
2018-05-06T04:54:35.617Z,32.20
2018-05-06T04:55:35.611Z,31.30
2018-05-06T04:56:35.601Z,31.10
2018-05-06T04:57:35.600Z,29.90
2018-05-06T04:58:35.585Z,29.40
2018-05-06T04:59:35.578Z,31.30
2018-05-06T05:00:35.570Z,30.00
2018-05-06T05:01:35.563Z,29.60
2018-05-06T05:02:35.554Z,30.90
2018-05-06T05:03:35.547Z,29.10
2018-05-06T05:04:35.539Z,29.90
2018-05-06T05:05:35.532Z,29.70
2018-05-06T05:06:35.523Z,31.00
2018-05-06T05:07:35.515Z,30.20
2018-05-06T05:08:35.507Z,31.70
2018-05-06T05:09:35.611Z,32.80
2018-05-06T05:10:35.492Z,33.10
2018-05-06T05:11:35.484Z,33.40
2018-05-06T05:12:35.477Z,31.50
2018-05-06T05:13:35.469Z,32.10
2018-05-06T05:14:35.460Z,32.40
2018-05-06T05:15:35.555Z,33.50
2018-05-06T05:16:35.445Z,31.50
2018-05-06T05:17:35.440Z,32.90
2018-05-06T05:18:35.429Z,32.10
2018-05-06T05:19:35.422Z,32.90
2018-05-06T05:20:35.416Z,33.50
2018-05-06T05:21:35.408Z,32.80
2018-05-06T05:22:35.400Z,33.20
2018-05-06T05:23:35.394Z,32.10
2018-05-06T05:24:35.383Z,32.00
2018-05-06T05:25:35.376Z,32.70
2018-05-06T05:26:35.366Z,31.10
2018-05-06T05:27:35.460Z,32.80
2018-05-06T05:28:35.351Z,31.00
2018-05-06T05:29:35.344Z,32.10
2018-05-06T05:30:35.335Z,31.60
2018-05-06T05:31:35.327Z,32.10
2018-05-06T05:32:35.320Z,32.00
2018-05-06T05:33:35.313Z,30.70
2018-05-06T05:34:35.309Z,30.40
2018-05-06T05:35:35.296Z,30.50
2018-05-06T05:36:35.288Z,31.30
2018-05-06T05:37:35.281Z,30.60
2018-05-06T05:38:35.272Z,30.90
2018-05-06T05:39:35.265Z,30.40
2018-05-06T05:40:35.257Z,31.00
2018-05-06T05:41:35.249Z,30.30
2018-05-06T05:42:35.241Z,29.90
2018-05-06T05:43:35.233Z,30.00
2018-05-06T05:44:35.225Z,29.60
2018-05-06T05:45:35.218Z,30.50
2018-05-06T05:46:35.209Z,31.20
2018-05-06T05:47:35.248Z,29.90
2018-05-06T05:48:35.197Z,30.30
2018-05-06T05:49:35.185Z,29.80
2018-05-06T05:50:35.177Z,30.10
2018-05-06T05:51:35.169Z,31.10
2018-05-06T05:52:35.161Z,30.80
2018-05-06T05:53:35.154Z,30.70
2018-05-06T05:54:35.145Z,30.30
2018-05-06T05:55:35.200Z,30.00
2018-05-06T05:56:35.130Z,31.30
2018-05-06T05:57:35.122Z,32.10
2018-05-06T05:58:35.114Z,30.20
2018-05-06T05:59:35.106Z,30.40
2018-05-06T06:00:35.098Z,31.80
2018-05-06T06:01:35.168Z,32.00
2018-05-06T06:02:35.082Z,32.90
2018-05-06T06:03:35.175Z,32.70
2018-05-06T06:04:35.067Z,31.50
2018-05-06T06:05:35.058Z,32.50
2018-05-06T06:06:35.050Z,33.70
2018-05-06T06:07:35.043Z,33.30
2018-05-06T06:08:35.035Z,32.40
2018-05-06T06:09:35.028Z,31.20
2018-05-06T06:10:35.019Z,32.00
2018-05-06T06:11:35.016Z,31.70
2018-05-06T06:12:35.003Z,30.60
2018-05-06T06:13:34.995Z,31.70
2018-05-06T06:14:34.987Z,32.40
2018-05-06T06:15:35.027Z,30.80
2018-05-06T06:16:34.972Z,32.00
2018-05-06T06:17:34.968Z,31.60
2018-05-06T06:18:34.956Z,32.00
2018-05-06T06:19:34.951Z,31.70
2018-05-06T06:20:34.940Z,31.50
2018-05-06T06:21:34.933Z,30.70
2018-05-06T06:22:34.925Z,31.60
2018-05-06T06:23:34.917Z,29.40
2018-05-06T06:24:34.937Z,31.20
2018-05-06T06:25:34.902Z,29.70
2018-05-06T06:26:34.896Z,29.80
2018-05-06T06:27:34.886Z,28.70
2018-05-06T06:28:34.879Z,29.40
2018-05-06T06:29:34.871Z,31.10
2018-05-06T06:30:34.863Z,30.00
2018-05-06T06:31:34.856Z,31.00
2018-05-06T06:32:34.852Z,30.90
2018-05-06T06:33:34.841Z,31.40
2018-05-06T06:34:34.831Z,29.20
2018-05-06T06:35:34.824Z,30.00
2018-05-06T06:36:34.817Z,30.00
2018-05-06T06:37:34.804Z,29.90
2018-05-06T06:38:34.796Z,30.00
2018-05-06T06:39:34.888Z,30.10
2018-05-06T06:40:34.781Z,29.60
2018-05-06T06:41:34.774Z,30.00
2018-05-06T06:42:34.766Z,28.40
2018-05-06T06:43:34.758Z,30.40
2018-05-06T06:44:34.751Z,28.70
2018-05-06T06:45:34.844Z,30.20
2018-05-06T06:46:34.733Z,30.40
2018-05-06T06:47:34.727Z,29.40
2018-05-06T06:48:34.720Z,30.00
2018-05-06T06:49:34.713Z,29.90
2018-05-06T06:50:34.703Z,30.00
2018-05-06T06:51:34.697Z,28.60
2018-05-06T06:52:34.689Z,30.70
2018-05-06T06:53:34.682Z,30.50
2018-05-06T06:54:34.673Z,28.40
2018-05-06T06:55:34.665Z,29.90
2018-05-06T06:56:34.659Z,29.80
2018-05-06T06:57:34.752Z,29.30
2018-05-06T06:58:34.644Z,29.20
2018-05-06T06:59:34.635Z,29.70
2018-05-06T07:00:34.628Z,28.80
2018-05-06T07:01:34.621Z,28.90
2018-05-06T07:02:34.613Z,29.60
2018-05-06T07:03:34.604Z,30.30
2018-05-06T07:04:34.598Z,29.20
2018-05-06T07:05:34.590Z,30.40
2018-05-06T07:06:34.581Z,29.40
2018-05-06T07:07:34.575Z,28.40
2018-05-06T07:08:34.567Z,29.30
2018-05-06T07:09:34.560Z,29.70
2018-05-06T07:10:34.551Z,30.20
2018-05-06T07:11:34.544Z,31.10
2018-05-06T07:12:34.538Z,29.30
2018-05-06T07:13:34.529Z,29.70
2018-05-06T07:14:34.520Z,29.70
2018-05-06T07:15:34.612Z,29.40
2018-05-06T07:16:34.505Z,30.40
2018-05-06T07:17:34.498Z,30.70
2018-05-06T07:18:34.489Z,30.30
2018-05-06T07:19:34.482Z,30.30
2018-05-06T07:20:34.473Z,31.60
2018-05-06T07:21:34.567Z,30.30
2018-05-06T07:22:34.457Z,30.80
2018-05-06T07:23:34.453Z,30.00
2018-05-06T07:24:34.443Z,30.80
2018-05-06T07:25:34.436Z,29.60
2018-05-06T07:26:34.429Z,29.70
2018-05-06T07:27:34.518Z,30.30
2018-05-06T07:28:34.412Z,31.00
2018-05-06T07:29:34.405Z,30.30
2018-05-06T07:30:34.396Z,30.60
2018-05-06T07:31:34.389Z,30.60
2018-05-06T07:32:34.381Z,30.60
2018-05-06T07:33:34.373Z,31.00
2018-05-06T07:34:34.366Z,29.60
2018-05-06T07:35:34.358Z,29.90
2018-05-06T07:36:34.350Z,30.20
2018-05-06T07:37:34.343Z,29.80
2018-05-06T07:38:34.338Z,30.30
2018-05-06T07:39:34.327Z,31.00
2018-05-06T07:40:34.324Z,30.80
2018-05-06T07:41:34.324Z,30.40
2018-05-06T07:42:34.302Z,30.90
2018-05-06T07:43:34.296Z,30.20
2018-05-06T07:44:34.289Z,31.00
2018-05-06T07:45:34.432Z,30.90
2018-05-06T07:46:34.273Z,30.00
2018-05-06T07:47:34.267Z,31.00
2018-05-06T07:48:34.258Z,29.90
2018-05-06T07:49:34.250Z,29.90
2018-05-06T07:50:34.243Z,28.40
2018-05-06T07:51:34.235Z,29.50
2018-05-06T07:52:34.227Z,29.60
2018-05-06T07:53:34.220Z,30.40
2018-05-06T07:54:34.212Z,28.70
2018-05-06T07:55:34.203Z,30.00
2018-05-06T07:56:34.196Z,28.70
2018-05-06T07:57:34.288Z,29.40
2018-05-06T07:58:34.180Z,28.20
2018-05-06T07:59:34.174Z,29.00
2018-05-06T08:00:34.166Z,29.20
2018-05-06T08:01:34.158Z,28.20
2018-05-06T08:02:34.153Z,28.00
2018-05-06T08:03:34.143Z,29.80
2018-05-06T08:04:34.135Z,28.40
2018-05-06T08:05:34.128Z,28.10
2018-05-06T08:06:34.118Z,29.80
2018-05-06T08:07:34.110Z,28.60
2018-05-06T08:08:34.103Z,29.70
2018-05-06T08:09:34.196Z,29.20
2018-05-06T08:10:34.087Z,27.90
2018-05-06T08:11:34.081Z,28.90
2018-05-06T08:12:34.071Z,27.30
2018-05-06T08:13:34.065Z,28.20
2018-05-06T08:14:34.055Z,28.80
2018-05-06T08:15:34.052Z,29.00
2018-05-06T08:16:34.065Z,28.50
2018-05-06T08:17:34.034Z,28.70
2018-05-06T08:18:34.024Z,28.20
2018-05-06T08:19:34.017Z,30.10
2018-05-06T08:20:34.010Z,28.60
2018-05-06T08:21:34.003Z,28.20
2018-05-06T08:22:33.993Z,28.70
2018-05-06T08:23:33.986Z,28.70
2018-05-06T08:24:33.979Z,28.50
2018-05-06T08:25:33.971Z,29.50
2018-05-06T08:26:33.962Z,28.90
2018-05-06T08:27:33.955Z,29.10
2018-05-06T08:28:33.947Z,28.20
2018-05-06T08:29:33.940Z,29.90
2018-05-06T08:30:33.930Z,30.00
2018-05-06T08:31:33.923Z,30.30
2018-05-06T08:32:33.916Z,31.10
2018-05-06T08:33:34.008Z,29.80
2018-05-06T08:34:33.898Z,29.60
2018-05-06T08:35:33.892Z,29.80
2018-05-06T08:36:33.884Z,29.60
2018-05-06T08:37:33.960Z,29.60
2018-05-06T08:38:33.875Z,29.90
2018-05-06T08:39:33.963Z,29.40
2018-05-06T08:40:33.851Z,28.40
2018-05-06T08:41:33.844Z,30.30
2018-05-06T08:42:33.836Z,29.30
2018-05-06T08:43:33.829Z,29.60
2018-05-06T08:44:33.820Z,28.90
2018-05-06T08:45:33.813Z,29.50
2018-05-06T08:46:33.804Z,29.00
2018-05-06T08:47:33.796Z,28.50
2018-05-06T08:48:33.788Z,31.60
2018-05-06T08:49:33.780Z,30.80
2018-05-06T08:50:33.771Z,30.40
2018-05-06T08:51:33.904Z,30.70
2018-05-06T08:52:33.760Z,30.20
2018-05-06T08:53:33.748Z,29.20
2018-05-06T08:54:33.740Z,29.10
2018-05-06T08:55:33.731Z,28.70
2018-05-06T08:56:33.724Z,29.80
2018-05-06T08:57:33.717Z,29.00
2018-05-06T08:58:33.707Z,29.10
2018-05-06T08:59:33.702Z,28.90
2018-05-06T09:00:33.692Z,28.80
2018-05-06T09:01:33.685Z,29.40
2018-05-06T09:02:33.674Z,28.70
2018-05-06T09:03:33.767Z,29.30
2018-05-06T09:04:33.660Z,28.50
2018-05-06T09:05:33.652Z,28.50
2018-05-06T09:06:33.642Z,27.20
2018-05-06T09:07:33.635Z,28.80
2018-05-06T09:08:33.627Z,28.60
2018-05-06T09:09:33.619Z,29.10
2018-05-06T09:10:33.609Z,27.40
2018-05-06T09:11:33.603Z,29.10
2018-05-06T09:12:33.595Z,29.00
2018-05-06T09:13:33.587Z,29.50
2018-05-06T09:14:33.579Z,27.80
2018-05-06T09:15:33.720Z,27.90
2018-05-06T09:16:33.564Z,29.10
2018-05-06T09:17:33.554Z,28.50
2018-05-06T09:18:33.545Z,28.20
2018-05-06T09:19:33.590Z,29.40
2018-05-06T09:20:33.529Z,28.20
2018-05-06T09:21:33.523Z,27.00
2018-05-06T09:22:33.512Z,28.40
2018-05-06T09:23:33.505Z,27.40
2018-05-06T09:24:33.497Z,27.30
2018-05-06T09:25:33.552Z,28.70
2018-05-06T09:26:33.479Z,28.20
2018-05-06T09:27:33.472Z,27.80
2018-05-06T09:28:33.464Z,28.10
2018-05-06T09:29:33.456Z,28.10
2018-05-06T09:30:33.448Z,27.90
2018-05-06T09:31:33.442Z,28.60
2018-05-06T09:32:33.432Z,27.50
2018-05-06T09:33:33.424Z,27.90
2018-05-06T09:34:33.415Z,28.10
2018-05-06T09:35:33.406Z,28.10
2018-05-06T09:36:33.399Z,28.10
2018-05-06T09:37:33.392Z,29.30
2018-05-06T09:38:33.384Z,27.70
2018-05-06T09:39:33.375Z,29.10
2018-05-06T09:40:33.367Z,28.00
2018-05-06T09:41:33.364Z,29.20
2018-05-06T09:42:33.351Z,28.30
2018-05-06T09:43:33.343Z,29.30
2018-05-06T09:44:33.335Z,28.10
2018-05-06T09:45:33.479Z,28.60
2018-05-06T09:46:33.320Z,29.20
2018-05-06T09:47:33.325Z,28.00
2018-05-06T09:48:33.309Z,28.50
2018-05-06T09:49:33.296Z,29.30
2018-05-06T09:50:33.287Z,28.50
2018-05-06T09:51:33.280Z,28.70
2018-05-06T09:52:33.274Z,29.70
2018-05-06T09:53:33.265Z,29.10
2018-05-06T09:54:33.255Z,28.90
2018-05-06T09:55:33.249Z,28.70
2018-05-06T09:56:33.247Z,28.00
2018-05-06T09:57:33.233Z,28.40
2018-05-06T09:58:33.225Z,28.10
2018-05-06T09:59:33.216Z,28.30
2018-05-06T10:00:33.209Z,29.10
2018-05-06T10:01:33.202Z,28.90
2018-05-06T10:02:33.193Z,26.40
2018-05-06T10:03:33.186Z,28.20
2018-05-06T10:04:33.177Z,27.50
2018-05-06T10:05:33.170Z,26.80
2018-05-06T10:06:33.164Z,27.50
2018-05-06T10:07:33.152Z,26.50
2018-05-06T10:08:33.147Z,28.60
2018-05-06T10:09:33.237Z,27.40
2018-05-06T10:10:33.129Z,27.30
2018-05-06T10:11:33.122Z,27.00
2018-05-06T10:12:33.115Z,26.60
2018-05-06T10:13:33.105Z,27.30
2018-05-06T10:14:33.098Z,26.60
2018-05-06T10:15:33.191Z,27.30
2018-05-06T10:16:33.082Z,26.70
2018-05-06T10:17:33.076Z,27.80
2018-05-06T10:18:33.067Z,28.80
2018-05-06T10:19:33.059Z,28.80
2018-05-06T10:20:33.052Z,27.20
2018-05-06T10:21:33.044Z,27.00
2018-05-06T10:22:33.035Z,28.70
2018-05-06T10:23:33.028Z,28.50
2018-05-06T10:24:33.020Z,27.70
2018-05-06T10:25:33.012Z,27.70
2018-05-06T10:26:33.004Z,28.10
2018-05-06T10:27:33.010Z,27.40
2018-05-06T10:28:32.988Z,27.20
2018-05-06T10:29:32.983Z,26.70
2018-05-06T10:30:32.972Z,27.80
2018-05-06T10:31:32.965Z,25.70
2018-05-06T10:32:32.958Z,27.60
2018-05-06T10:33:33.051Z,26.70
2018-05-06T10:34:32.941Z,28.20
2018-05-06T10:35:32.934Z,26.10
2018-05-06T10:36:32.928Z,26.50
2018-05-06T10:37:32.920Z,25.60
2018-05-06T10:38:32.970Z,25.80
2018-05-06T10:39:32.904Z,24.40
2018-05-06T10:40:32.897Z,25.80
2018-05-06T10:41:32.890Z,25.70
2018-05-06T10:42:32.884Z,24.80
2018-05-06T10:43:32.875Z,24.70
2018-05-06T10:44:32.884Z,25.10
2018-05-06T10:45:33.102Z,25.50
2018-05-06T10:46:32.851Z,26.70
2018-05-06T10:47:32.846Z,25.90
2018-05-06T10:48:32.836Z,25.10
2018-05-06T10:49:32.831Z,25.50
2018-05-06T10:50:32.821Z,26.50
2018-05-06T10:51:32.815Z,24.10
2018-05-06T10:52:32.807Z,25.30
2018-05-06T10:53:32.801Z,25.60
2018-05-06T10:54:32.793Z,25.10
2018-05-06T10:55:32.785Z,24.40
2018-05-06T10:56:32.784Z,23.90
2018-05-06T10:57:32.771Z,23.90
2018-05-06T10:58:32.765Z,25.60
2018-05-06T10:59:32.756Z,24.10
2018-05-06T11:00:32.753Z,23.80
2018-05-06T11:01:32.743Z,23.70
2018-05-06T11:02:32.734Z,23.30
2018-05-06T11:03:32.826Z,23.20
2018-05-06T11:04:32.720Z,23.80
2018-05-06T11:05:32.713Z,24.80
2018-05-06T11:06:32.705Z,23.80
2018-05-06T11:07:32.700Z,24.50
2018-05-06T11:08:32.690Z,24.60
2018-05-06T11:09:32.682Z,24.30
2018-05-06T11:10:32.683Z,23.50
2018-05-06T11:11:32.669Z,23.70
2018-05-06T11:12:32.661Z,23.80
2018-05-06T11:13:32.656Z,22.50
2018-05-06T11:14:32.646Z,22.60
2018-05-06T11:15:32.640Z,22.80
2018-05-06T11:16:32.633Z,23.20
2018-05-06T11:17:32.624Z,22.90
2018-05-06T11:18:32.616Z,23.40
2018-05-06T11:19:32.610Z,22.40
2018-05-06T11:20:32.603Z,21.90
2018-05-06T11:21:32.596Z,22.70
2018-05-06T11:22:32.588Z,22.70
2018-05-06T11:23:32.580Z,23.00
2018-05-06T11:24:32.574Z,21.60
2018-05-06T11:25:32.565Z,22.40
2018-05-06T11:26:32.561Z,22.10
2018-05-06T11:27:32.554Z,21.80
2018-05-06T11:28:32.543Z,21.70
2018-05-06T11:29:32.537Z,22.70
2018-05-06T11:30:32.528Z,23.40
2018-05-06T11:31:32.524Z,22.80
2018-05-06T11:32:32.514Z,23.50
2018-05-06T11:33:32.508Z,23.70
2018-05-06T11:34:32.501Z,21.70
2018-05-06T11:35:32.494Z,21.70
2018-05-06T11:36:32.490Z,22.60
2018-05-06T11:37:32.480Z,22.40
2018-05-06T11:38:32.473Z,21.60
2018-05-06T11:39:32.468Z,22.10
2018-05-06T11:40:32.460Z,22.70
2018-05-06T11:41:32.453Z,22.00
2018-05-06T11:42:32.445Z,22.70
2018-05-06T11:43:32.438Z,22.80
2018-05-06T11:44:32.431Z,22.90
2018-05-06T11:45:32.426Z,23.50
2018-05-06T11:46:32.417Z,23.80
2018-05-06T11:47:32.412Z,24.50
2018-05-06T11:48:32.406Z,24.10
2018-05-06T11:49:32.398Z,25.60
2018-05-06T11:50:32.389Z,24.90
2018-05-06T11:51:32.385Z,25.70
2018-05-06T11:52:32.378Z,26.00
2018-05-06T11:53:32.372Z,26.60
2018-05-06T11:54:32.365Z,28.60
2018-05-06T11:55:32.358Z,28.10
2018-05-06T11:56:32.352Z,28.60
2018-05-06T11:57:32.512Z,29.10
2018-05-06T11:58:32.337Z,29.40
2018-05-06T11:59:32.331Z,30.60
2018-05-06T12:00:32.323Z,30.60
2018-05-06T12:01:32.319Z,31.10
2018-05-06T12:02:32.311Z,30.70
2018-05-06T12:03:32.303Z,32.20
2018-05-06T12:04:32.299Z,32.30
2018-05-06T12:05:32.292Z,31.40
2018-05-06T12:06:32.284Z,32.70
2018-05-06T12:07:32.278Z,31.80
2018-05-06T12:08:32.272Z,31.50
2018-05-06T12:09:32.266Z,31.70
2018-05-06T12:10:32.258Z,30.60
2018-05-06T12:11:32.253Z,32.10
2018-05-06T12:12:32.247Z,29.90
2018-05-06T12:13:32.241Z,29.20
2018-05-06T12:14:32.234Z,27.60
2018-05-06T12:15:32.228Z,29.50
2018-05-06T12:16:32.222Z,28.90
2018-05-06T12:17:32.217Z,27.60
2018-05-06T12:18:32.211Z,27.30
2018-05-06T12:19:32.204Z,26.60
2018-05-06T12:20:32.199Z,26.40
2018-05-06T12:21:32.194Z,26.50
2018-05-06T12:22:32.186Z,26.90
2018-05-06T12:23:32.185Z,26.30
2018-05-06T12:24:32.176Z,25.20
2018-05-06T12:25:32.174Z,25.60
2018-05-06T12:26:32.166Z,24.30
2018-05-06T12:27:32.287Z,25.00
2018-05-06T12:28:32.155Z,24.10
2018-05-06T12:29:32.154Z,23.10
2018-05-06T12:30:32.145Z,22.70
2018-05-06T12:31:32.139Z,22.70
2018-05-06T12:32:32.137Z,22.20
2018-05-06T12:33:32.133Z,23.10
2018-05-06T12:34:32.125Z,23.40
2018-05-06T12:35:32.121Z,21.90
2018-05-06T12:36:32.118Z,21.80
2018-05-06T12:37:32.113Z,23.30
2018-05-06T12:38:32.109Z,23.60
2018-05-06T12:39:32.106Z,22.70
2018-05-06T12:40:32.100Z,22.60
2018-05-06T12:41:32.095Z,22.90
2018-05-06T12:42:32.091Z,22.90
2018-05-06T12:43:32.172Z,22.30
2018-05-06T12:44:32.086Z,23.30
2018-05-06T12:45:32.189Z,22.30
2018-05-06T12:46:32.074Z,22.80
2018-05-06T12:47:32.086Z,21.70
2018-05-06T12:48:32.067Z,22.80
2018-05-06T12:49:32.147Z,22.90
2018-05-06T12:50:32.060Z,20.60
2018-05-06T12:51:32.179Z,20.30
2018-05-06T12:52:32.049Z,20.50